Time;durP1;ratioP1;P1;durP2;ratioP2;P2;SDS_P1;SDS_P2;PMS_P1;PMS_P2;Temp;Humidity;BMP_temperature;BMP_pressure;BME280_temperature;BME280_humidity;BME280_pressure;Samples;Min_cycle;Max_cycle;Signal;HPM_P1;HPM_P2
2022/10/09 00:02:24;;;;;;;10.63;4.03;;;;;;;9.11;81.94;100899.94;2045193;85;21026;-81
2022/10/09 00:05:25;;;;;;;10.50;4.28;;;;;;;9.09;82.00;100903.20;2052352;85;21049;-78
2022/10/09 00:08:27;;;;;;;9.83;3.60;;;;;;;9.03;81.93;100907.23;2048395;85;21013;-77
2022/10/09 00:11:31;;;;;;;9.65;3.87;;;;;;;9.01;81.97;100908.34;2043394;85;21009;-77
2022/10/09 00:14:33;;;;;;;10.53;3.30;;;;;;;8.96;81.97;100909.61;2043649;85;21036;-79
2022/10/09 00:17:33;;;;;;;6.33;3.75;;;;;;;8.94;81.92;100914.19;2042685;85;21547;-80
2022/10/09 00:20:37;;;;;;;5.85;3.22;;;;;;;8.90;81.94;100914.13;2049843;85;20982;-81
2022/10/09 00:23:38;;;;;;;7.10;3.33;;;;;;;8.86;82.07;100916.68;1990362;88;21078;-81
2022/10/09 00:26:39;;;;;;;8.30;3.33;;;;;;;8.83;82.01;100914.31;1988386;88;21484;-80
2022/10/09 00:29:40;;;;;;;11.08;3.30;;;;;;;8.79;82.07;100916.89;1986375;88;21516;-77
2022/10/09 00:32:41;;;;;;;12.20;3.60;;;;;;;8.75;82.11;100926.05;1989684;88;21593;-78
2022/10/09 00:35:42;;;;;;;10.68;3.22;;;;;;;8.73;82.12;100930.17;1994112;88;21049;-80
2022/10/09 00:38:43;;;;;;;6.62;3.12;;;;;;;8.69;82.16;100936.69;1971494;89;20983;-79
2022/10/09 00:41:44;;;;;;;7.85;3.42;;;;;;;8.66;82.17;100932.16;1973341;88;21062;-76
2022/10/09 00:44:58;;;;;;;4.90;2.98;;;;;;;8.64;82.16;100936.74;1994555;88;21179;-79
2022/10/09 00:48:06;;;;;;;10.13;3.33;;;;;;;8.61;82.15;100937.02;1996561;88;21100;-79
2022/10/09 00:51:07;;;;;;;11.03;3.65;;;;;;;8.59;82.16;100942.91;1994444;88;21042;-78
2022/10/09 00:54:13;;;;;;;9.70;3.40;;;;;;;8.54;82.17;100939.37;1991463;88;21043;-78
2022/10/09 00:57:14;;;;;;;11.30;3.62;;;;;;;8.48;82.14;100948.67;2006345;88;21042;-78
2022/10/09 01:00:16;;;;;;;5.90;3.40;;;;;;;8.42;82.33;100950.53;2002180;88;21061;-81
2022/10/09 01:03:17;;;;;;;6.85;3.42;;;;;;;8.42;82.43;100953.17;2009778;88;21081;-76
2022/10/09 01:06:29;;;;;;;9.23;3.20;;;;;;;8.39;82.58;100955.22;2000004;88;21073;-76
2022/10/09 01:10:03;;;;;;;8.23;3.90;;;;;;;8.32;82.60;100952.25;2003205;87;21059;-81
2022/10/09 01:13:36;;;;;;;9.45;3.15;;;;;;;8.28;82.68;100950.36;2003250;87;21060;-81
2022/10/09 01:17:10;;;;;;;8.60;3.45;;;;;;;8.24;82.62;100954.70;1931748;89;21600;-78
2022/10/09 01:20:32;;;;;;;7.42;3.80;;;;;;;8.19;82.69;100959.05;1983359;88;21528;-82
2022/10/09 01:23:42;;;;;;;19.70;3.98;;;;;;;8.18;82.78;100961.36;2011155;87;21034;-79
2022/10/09 01:27:12;;;;;;;8.25;3.20;;;;;;;8.19;82.87;100966.16;1985504;88;20998;-76
2022/10/09 01:30:13;;;;;;;6.50;3.22;;;;;;;8.16;82.72;100969.06;1979179;88;21550;-81
2022/10/09 01:33:16;;;;;;;8.10;3.60;;;;;;;8.11;82.66;100970.80;1987941;88;21063;-80
2022/10/09 01:36:19;;;;;;;8.83;3.50;;;;;;;8.11;82.62;100973.89;1986844;88;21046;-79
2022/10/09 01:39:22;;;;;;;7.97;3.25;;;;;;;8.07;82.66;100983.41;1984137;88;21057;-80
2022/10/09 01:42:26;;;;;;;6.45;3.65;;;;;;;8.03;82.84;100975.40;1984919;88;21095;-82
2022/10/09 01:45:38;;;;;;;10.30;3.80;;;;;;;7.99;82.88;100977.09;1977963;88;21038;-79
2022/10/09 01:48:40;;;;;;;8.70;3.87;;;;;;;7.96;83.00;100982.15;1980152;88;21535;-81
2022/10/09 01:52:08;;;;;;;10.95;3.35;;;;;;;7.92;83.07;100983.88;1983297;88;21082;-77
2022/10/09 01:55:33;;;;;;;7.95;3.77;;;;;;;7.89;83.29;100984.97;1969131;88;21506;-80
2022/10/09 01:58:42;;;;;;;8.03;3.37;;;;;;;7.84;83.38;100993.76;1982258;88;21333;-80
2022/10/09 02:01:46;;;;;;;6.78;3.60;;;;;;;7.80;83.48;100992.35;1984433;88;21084;-81
2022/10/09 02:04:49;;;;;;;8.35;3.45;;;;;;;7.79;83.57;100994.62;1989803;88;21526;-80
2022/10/09 02:07:51;;;;;;;7.05;3.45;;;;;;;7.78;83.60;100999.07;1984327;88;21000;-79
2022/10/09 02:10:55;;;;;;;8.98;2.95;;;;;;;7.79;83.63;101001.22;1989495;88;21011;-79
2022/10/09 02:13:57;;;;;;;8.05;3.37;;;;;;;7.77;83.64;100998.72;1984174;88;21045;-79
2022/10/09 02:17:06;;;;;;;11.80;3.33;;;;;;;7.76;83.68;101004.13;2004141;89;21508;-79
2022/10/09 02:20:32;;;;;;;9.65;3.83;;;;;;;7.76;83.70;101010.73;2005909;87;21049;-83
2022/10/09 02:23:36;;;;;;;8.10;3.37;;;;;;;7.72;83.66;101018.08;2002368;87;21025;-79
2022/10/09 02:26:38;;;;;;;8.48;3.72;;;;;;;7.66;83.63;101011.98;2033022;86;21536;-79
2022/10/09 02:29:43;;;;;;;6.47;3.25;;;;;;;7.63;83.64;101016.20;2027431;86;21012;-79
2022/10/09 02:32:44;;;;;;;7.85;3.60;;;;;;;7.59;83.56;101029.28;2037580;86;21113;-79
2022/10/09 02:35:46;;;;;;;5.37;3.33;;;;;;;7.57;83.60;101027.23;2033353;86;21054;-80
2022/10/09 02:38:47;;;;;;;7.92;3.87;;;;;;;7.55;83.58;101023.91;2031544;86;21002;-80
2022/10/09 02:41:48;;;;;;;5.87;3.30;;;;;;;7.50;83.57;101033.52;2035567;86;21122;-80
2022/10/09 02:44:49;;;;;;;7.05;3.22;;;;;;;7.48;83.59;101031.95;2033420;86;21065;-80
2022/10/09 02:47:50;;;;;;;5.85;3.55;;;;;;;7.45;83.60;101037.00;2033005;86;21073;-82
2022/10/09 02:50:51;;;;;;;7.17;2.98;;;;;;;7.39;83.44;101038.82;2036038;86;20978;-81
2022/10/09 02:53:54;;;;;;;6.50;3.42;;;;;;;7.36;83.54;101049.14;2035322;85;21085;-81
2022/10/09 02:56:55;;;;;;;7.03;3.42;;;;;;;7.33;83.51;101042.80;2031251;86;21037;-81
2022/10/09 02:59:56;;;;;;;5.42;3.55;;;;;;;7.31;83.45;101058.40;2021563;86;21038;-81
2022/10/09 03:02:57;;;;;;;6.47;3.33;;;;;;;7.27;83.60;101054.34;2039103;86;21031;-80
2022/10/09 03:06:05;;;;;;;7.58;3.83;;;;;;;7.24;83.47;101064.66;2031524;86;21043;-82
2022/10/09 03:09:06;;;;;;;8.80;3.90;;;;;;;7.21;83.49;101066.22;2027357;86;21064;-80
2022/10/09 03:12:07;;;;;;;7.95;3.70;;;;;;;7.19;83.48;101070.30;2032416;86;21002;-80
2022/10/09 03:15:09;;;;;;;6.35;3.30;;;;;;;7.16;83.51;101065.26;2029717;86;21073;-79
2022/10/09 03:18:10;;;;;;;8.70;3.95;;;;;;;7.15;83.53;101064.05;2028053;86;21018;-83
2022/10/09 03:21:21;;;;;;;7.00;3.20;;;;;;;7.13;83.57;101075.23;2038687;86;20993;-80
2022/10/09 03:24:22;;;;;;;;;;;;;;;7.08;83.41;101075.58;2031947;86;21052;-80
2022/10/09 03:27:22;;;;;;;8.03;3.30;;;;;;;7.08;83.43;101077.38;2030283;86;20458;-80
2022/10/09 03:30:23;;;;;;;11.28;3.60;;;;;;;7.03;83.43;101080.86;2046771;85;21643;-79
2022/10/09 03:33:24;;;;;;;9.48;3.67;;;;;;;7.00;83.46;101084.58;2047785;85;20982;-80
2022/10/09 03:36:25;;;;;;;8.45;3.30;;;;;;;6.94;83.37;101089.85;2049262;85;21052;-80
2022/10/09 03:39:26;;;;;;;9.53;3.70;;;;;;;6.91;83.39;101098.01;2044016;85;20997;-80
2022/10/09 03:42:27;;;;;;;10.82;3.47;;;;;;;6.90;83.46;101096.83;2053714;85;21723;-82
2022/10/09 03:45:28;;;;;;;7.25;3.77;;;;;;;6.88;83.42;101096.09;2046471;85;21013;-78
2022/10/09 03:48:29;;;;;;;13.45;3.42;;;;;;;6.87;83.52;101106.27;2048810;85;21066;-78
2022/10/09 03:51:30;;;;;;;6.80;3.65;;;;;;;6.85;83.44;101109.53;2044467;85;21077;-82
2022/10/09 03:54:31;;;;;;;5.95;3.00;;;;;;;6.83;83.36;101104.36;2043001;85;21081;-81
2022/10/09 03:57:33;;;;;;;8.65;3.42;;;;;;;6.81;83.31;101109.39;2047234;85;20982;-81
2022/10/09 04:00:35;;;;;;;7.80;3.37;;;;;;;6.78;83.25;101109.62;2046182;85;22157;-82
2022/10/09 04:03:36;;;;;;;7.35;3.30;;;;;;;6.71;83.24;101109.27;2046105;85;21064;-79
2022/10/09 04:06:37;;;;;;;9.53;3.45;;;;;;;6.62;83.29;101108.66;2045697;85;21147;-80
2022/10/09 04:09:38;;;;;;;7.67;3.10;;;;;;;6.56;83.51;101113.05;2044859;85;21045;-82
2022/10/09 04:12:39;;;;;;;6.53;3.00;;;;;;;6.55;83.51;101121.45;2048421;85;21014;-83
2022/10/09 04:15:43;;;;;;;10.18;4.17;;;;;;;6.55;83.42;101125.41;2046637;85;21553;-82
2022/10/09 04:18:46;;;;;;;5.72;3.22;;;;;;;6.52;83.39;101130.91;2041919;85;21559;-82
2022/10/09 04:21:47;;;;;;;7.08;3.75;;;;;;;6.53;83.53;101129.11;2048434;85;21057;-81
2022/10/09 04:24:48;;;;;;;8.55;4.00;;;;;;;6.52;83.46;101134.87;2048812;85;21036;-80
2022/10/09 04:27:49;;;;;;;8.73;4.45;;;;;;;6.50;83.50;101131.50;2048730;85;21028;-78
2022/10/09 04:30:51;;;;;;;11.10;3.98;;;;;;;6.47;83.47;101130.41;2038294;85;21054;-81
2022/10/09 04:33:54;;;;;;;10.50;4.47;;;;;;;6.42;83.42;101137.38;2039667;86;21069;-81
2022/10/09 04:36:55;;;;;;;9.85;3.70;;;;;;;6.38;83.64;101133.27;2040671;86;21658;-79
2022/10/09 04:39:56;;;;;;;7.17;3.72;;;;;;;6.38;83.98;101135.06;2043911;86;21032;-82
2022/10/09 04:42:57;;;;;;;9.48;4.20;;;;;;;6.36;84.06;101142.24;2048392;86;21040;-82
2022/10/09 04:46:05;;;;;;;9.68;3.87;;;;;;;6.33;84.12;101145.11;2050044;86;21077;-80
2022/10/09 04:49:06;;;;;;;8.93;3.20;;;;;;;6.32;84.14;101141.64;2047014;86;21064;-80
2022/10/09 04:52:07;;;;;;;7.28;3.60;;;;;;;6.29;84.12;101157.20;2042377;86;21006;-81
2022/10/09 04:55:08;;;;;;;5.60;3.50;;;;;;;6.29;84.18;101153.25;2036266;86;21336;-81
2022/10/09 04:58:11;;;;;;;6.58;3.37;;;;;;;6.28;84.09;101155.53;2037659;86;21057;-80
2022/10/09 05:01:22;;;;;;;7.67;3.25;;;;;;;6.29;84.23;101158.52;2038786;86;21033;-80
2022/10/09 05:04:23;;;;;;;;;;;;;;;6.31;84.20;101162.83;2042329;86;21523;-80
2022/10/09 05:07:24;;;;;;;5.55;3.17;;;;;;;6.29;84.16;101170.38;2042854;86;20160;-83
2022/10/09 05:10:25;;;;;;;4.08;2.60;;;;;;;6.27;84.22;101176.72;2035145;86;21043;-81
2022/10/09 05:13:31;;;;;;;7.15;2.90;;;;;;;6.27;84.27;101176.72;2035687;86;21042;-81
2022/10/09 05:16:32;;;;;;;6.65;3.25;;;;;;;6.28;84.19;101181.05;2040319;86;21009;-79
2022/10/09 05:19:33;;;;;;;5.65;2.95;;;;;;;6.28;84.23;101177.94;2043078;86;21451;-77
2022/10/09 05:22:34;;;;;;;11.05;3.08;;;;;;;6.34;84.35;101181.91;2042102;86;21513;-81
2022/10/09 05:25:35;;;;;;;9.03;3.40;;;;;;;6.41;84.28;101180.48;2035244;86;21457;-79
2022/10/09 05:28:37;;;;;;;5.97;2.62;;;;;;;6.61;84.58;101184.27;2039900;86;21094;-77
2022/10/09 05:31:38;;;;;;;9.85;3.00;;;;;;;6.88;84.53;101183.16;2033938;86;21055;-79
2022/10/09 05:34:39;;;;;;;5.65;2.75;;;;;;;7.16;84.64;101185.36;2030915;86;21053;-79
2022/10/09 05:37:45;;;;;;;7.75;2.75;;;;;;;7.53;84.75;101183.80;2034068;86;22484;-79
2022/10/09 05:40:58;;;;;;;5.95;2.27;;;;;;;7.94;84.60;101180.99;2041746;85;20997;-79
2022/10/09 05:44:02;;;;;;;9.18;3.00;;;;;;;8.31;83.91;101193.86;2031195;86;21042;-79
2022/10/09 05:47:03;;;;;;;8.23;3.25;;;;;;;8.70;83.89;101191.53;2031804;86;21014;-79
2022/10/09 05:50:05;;;;;;;15.15;3.72;;;;;;;9.20;83.74;101206.27;2035013;86;21150;-79
2022/10/09 05:53:06;;;;;;;9.75;3.20;;;;;;;9.62;83.40;101200.88;2034990;86;21062;-80
2022/10/09 05:56:20;;;;;;;9.15;3.10;;;;;;;10.03;82.53;101200.38;2035111;86;21093;-83
2022/10/09 05:59:21;;;;;;;6.58;3.47;;;;;;;10.44;82.31;101203.78;2031642;86;21002;-80
2022/10/09 06:02:22;;;;;;;5.47;2.70;;;;;;;10.75;81.55;101200.48;2039578;86;21017;-79
2022/10/09 06:05:23;;;;;;;9.23;3.02;;;;;;;11.15;80.87;101207.40;2035670;86;21078;-81
2022/10/09 06:08:25;;;;;;;8.83;3.10;;;;;;;11.35;80.26;101212.19;2037219;86;21045;-83
2022/10/09 06:11:30;;;;;;;7.40;3.30;;;;;;;11.76;79.82;101212.20;2033166;86;21500;-79
2022/10/09 06:14:31;;;;;;;9.65;3.30;;;;;;;12.03;79.31;101218.05;2033230;86;21065;-81
2022/10/09 06:17:33;;;;;;;10.45;3.45;;;;;;;12.24;78.43;101219.59;2029489;86;21677;-82
2022/10/09 06:20:34;;;;;;;7.95;3.00;;;;;;;12.47;77.79;101218.17;2029365;86;21138;-84
2022/10/09 06:23:35;;;;;;;9.30;3.33;;;;;;;12.64;77.31;101220.95;2034629;86;21030;-81
2022/10/09 06:26:39;;;;;;;10.32;3.60;;;;;;;12.87;75.89;101223.50;2028606;86;21062;-79
2022/10/09 06:29:41;;;;;;;8.23;3.25;;;;;;;12.79;75.52;101227.42;2029809;86;21113;-79
2022/10/09 06:32:42;;;;;;;10.25;3.87;;;;;;;12.91;75.76;101232.84;2036432;86;21078;-78
2022/10/09 06:35:43;;;;;;;7.17;3.33;;;;;;;13.04;74.60;101234.28;2029793;86;21033;-79
2022/10/09 06:38:45;;;;;;;8.10;3.00;;;;;;;13.19;74.60;101236.70;2031777;86;21078;-79
2022/10/09 06:41:46;;;;;;;8.75;2.92;;;;;;;13.27;72.52;101238.13;2039526;85;21019;-79
2022/10/09 06:45:08;;;;;;;6.25;2.87;;;;;;;13.28;72.69;101246.45;2031230;86;21553;-79
2022/10/09 06:48:09;;;;;;;7.72;3.02;;;;;;;13.29;72.94;101248.14;2025407;86;21092;-80
2022/10/09 06:51:17;;;;;;;4.42;2.58;;;;;;;13.53;72.80;101245.27;2033524;86;21031;-78
2022/10/09 06:54:17;;;;;;;7.00;3.42;;;;;;;13.55;71.58;101252.62;2034752;86;21046;-81
2022/10/09 06:57:19;;;;;;;6.30;3.00;;;;;;;13.58;70.94;101250.46;2035895;86;21005;-80
2022/10/09 07:00:20;;;;;;;6.53;2.87;;;;;;;13.58;70.94;101250.46;2033891;86;21009;-78
2022/10/09 07:03:21;;;;;;;6.45;2.50;;;;;;;13.63;70.99;101256.16;2036862;86;21041;-78
2022/10/09 07:06:29;;;;;;;7.67;3.00;;;;;;;13.85;71.64;101259.24;2029361;86;21452;-79
2022/10/09 07:09:30;;;;;;;6.75;2.90;;;;;;;13.96;70.37;101268.80;2035957;86;21013;-80
2022/10/09 07:12:36;;;;;;;6.53;3.25;;;;;;;14.10;70.62;101274.34;2035020;86;21773;-79
2022/10/09 07:15:44;;;;;;;6.35;2.80;;;;;;;14.38;70.36;101277.27;2031439;86;20960;-79
2022/10/09 07:18:46;;;;;;;7.87;2.92;;;;;;;14.60;69.81;101278.02;2027639;86;21032;-79
2022/10/09 07:21:49;;;;;;;8.23;2.98;;;;;;;14.71;69.06;101280.87;2031176;86;21005;-79
2022/10/09 07:24:50;;;;;;;8.48;2.80;;;;;;;14.67;68.67;101276.37;2033216;86;21029;-81
2022/10/09 07:27:51;;;;;;;6.53;2.45;;;;;;;14.77;68.71;101282.37;2039514;86;21013;-78
2022/10/09 07:30:53;;;;;;;11.90;2.98;;;;;;;14.99;68.48;101288.06;2044372;85;21017;-82
2022/10/09 07:33:59;;;;;;;12.85;2.90;;;;;;;15.27;68.72;101286.38;2046193;85;21058;-80
2022/10/09 07:36:57;;;;;;;7.35;3.00;;;;;;;15.60;67.84;101285.31;2051300;85;21029;-79
2022/10/09 07:39:58;;;;;;;6.55;3.22;;;;;;;15.79;67.30;101288.11;2054020;85;21534;-82
2022/10/09 07:42:59;;;;;;;7.37;2.92;;;;;;;15.87;67.14;101289.42;2045540;85;21052;-81
2022/10/09 07:46:02;;;;;;;8.78;3.12;;;;;;;16.10;66.72;101291.34;2048427;85;21045;-79
2022/10/09 07:49:04;;;;;;;8.00;2.52;;;;;;;16.37;66.33;101296.73;2045802;85;21084;-77
2022/10/09 07:52:05;;;;;;;8.50;3.33;;;;;;;16.45;65.46;101290.51;2046995;85;21098;-77
2022/10/09 07:55:06;;;;;;;8.68;2.62;;;;;;;16.56;65.29;101296.29;2048428;85;21075;-79
2022/10/09 07:58:08;;;;;;;8.00;2.58;;;;;;;16.79;65.42;101299.52;2048993;85;21006;-80
2022/10/09 08:01:09;;;;;;;8.40;2.87;;;;;;;16.87;64.64;101302.14;2047275;85;21013;-80
2022/10/09 08:04:10;;;;;;;11.50;3.17;;;;;;;17.02;63.98;101304.34;2050626;85;21495;-81
2022/10/09 08:07:11;;;;;;;8.43;3.08;;;;;;;16.92;63.76;101302.92;2049344;85;21056;-79
2022/10/09 08:10:12;;;;;;;9.13;2.92;;;;;;;16.67;63.44;101307.11;2045008;85;21032;-77
2022/10/09 08:13:13;;;;;;;8.05;3.30;;;;;;;16.75;63.30;101308.88;2045587;85;21401;-79
2022/10/09 08:16:16;;;;;;;7.22;2.60;;;;;;;16.86;63.25;101304.47;2043552;85;20982;-77
2022/10/09 08:19:17;;;;;;;5.80;2.62;;;;;;;17.04;62.89;101310.89;2043990;85;21024;-79
2022/10/09 08:22:19;;;;;;;8.73;2.62;;;;;;;17.00;62.35;101306.37;2037082;85;20994;-79
2022/10/09 08:25:20;;;;;;;6.12;2.25;;;;;;;16.85;61.86;101313.53;2049907;85;21024;-80
2022/10/09 08:28:22;;;;;;;8.30;2.67;;;;;;;16.42;61.84;101310.95;2043785;85;21072;-77
2022/10/09 08:31:24;;;;;;;9.98;3.42;;;;;;;16.73;61.26;101315.77;2033917;85;21053;-78
2022/10/09 08:34:25;;;;;;;6.33;2.70;;;;;;;16.98;62.14;101309.76;2029516;86;21549;-77
2022/10/09 08:37:26;;;;;;;7.67;3.10;;;;;;;17.44;61.09;101315.04;2029439;86;21611;-80
2022/10/09 08:40:50;;;;;;;5.85;2.98;;;;;;;17.64;60.99;101316.67;2032244;86;21017;-77
2022/10/09 08:44:01;;;;;;;8.55;3.37;;;;;;;17.81;61.08;101324.59;2037449;86;21029;-79
2022/10/09 08:47:25;;;;;;;8.03;2.27;;;;;;;18.08;59.08;101329.83;2034444;86;21568;-78
2022/10/09 08:50:32;;;;;;;9.63;2.50;;;;;;;17.94;59.29;101323.44;2032112;86;20991;-78
2022/10/09 08:54:06;;;;;;;6.70;2.72;;;;;;;17.86;59.43;101325.70;2033929;86;20999;-79
2022/10/09 08:57:15;;;;;;;7.10;2.80;;;;;;;17.94;59.33;101321.27;2035373;86;21028;-80
2022/10/09 09:00:21;;;;;;;6.70;2.67;;;;;;;17.95;58.36;101328.30;2038497;86;21076;-79
2022/10/09 09:03:59;;;;;;;7.30;3.22;;;;;;;17.80;58.40;101326.45;2024931;86;21006;-80
2022/10/09 09:07:15;;;;;;;7.00;2.37;;;;;;;17.82;58.77;101328.45;2029990;86;20996;-79
2022/10/09 09:10:53;;;;;;;12.23;2.80;;;;;;;18.03;58.82;101334.91;2028383;86;21061;-78
2022/10/09 09:14:24;;;;;;;6.75;2.85;;;;;;;17.98;58.23;101335.98;2035127;86;21041;-79
2022/10/09 09:17:43;;;;;;;5.08;2.22;;;;;;;17.95;58.37;101335.01;2032484;86;21579;-80
2022/10/09 09:20:54;;;;;;;11.83;2.30;;;;;;;18.10;57.17;101333.99;2038936;86;21535;-80
2022/10/09 09:23:59;;;;;;;8.10;2.72;;;;;;;17.74;56.76;101339.23;2034151;86;21137;-80
2022/10/09 09:27:05;;;;;;;9.60;2.30;;;;;;;17.58;57.36;101338.06;2037451;86;21073;-80
2022/10/09 09:30:18;;;;;;;6.83;2.47;;;;;;;17.74;57.79;101337.90;2044457;85;21532;-79
2022/10/09 09:34:06;;;;;;;7.67;2.35;;;;;;;17.94;57.19;101334.19;2046250;85;20994;-79
2022/10/09 09:37:11;;;;;;;8.58;2.52;;;;;;;17.58;56.77;101330.01;2047268;85;21543;-79
2022/10/09 09:40:18;;;;;;;7.37;2.02;;;;;;;17.68;56.77;101330.55;2050575;85;21065;-80
2022/10/09 09:43:23;;;;;;;5.08;1.85;;;;;;;17.92;57.29;101331.67;2049207;85;21492;-81
2022/10/09 09:46:28;;;;;;;5.22;2.10;;;;;;;18.11;56.50;101334.82;2051397;85;21024;-81
2022/10/09 09:49:30;;;;;;;4.85;2.00;;;;;;;18.15;55.82;101326.18;2057600;85;21487;-82
2022/10/09 09:52:44;;;;;;;9.90;2.37;;;;;;;17.84;55.21;101324.22;2052439;85;21028;-81
2022/10/09 09:55:47;;;;;;;10.48;2.20;;;;;;;17.61;55.68;101323.76;2053371;85;21578;-77
2022/10/09 09:58:52;;;;;;;8.95;1.98;;;;;;;17.49;56.02;101321.20;2051628;85;21019;-81
2022/10/09 10:02:17;;;;;;;7.80;1.95;;;;;;;17.54;55.24;101319.30;2048423;85;21536;-81
2022/10/09 10:05:26;;;;;;;6.65;1.92;;;;;;;17.44;55.35;101324.43;2049003;85;21006;-82
2022/10/09 10:08:33;;;;;;;6.08;2.10;;;;;;;17.49;54.65;101322.55;2051390;85;21037;-81
2022/10/09 10:11:34;;;;;;;6.20;1.92;;;;;;;17.46;55.09;101325.09;2054266;85;21017;-78
2022/10/09 10:14:36;;;;;;;5.53;2.55;;;;;;;17.45;54.80;101323.91;2052507;85;21066;-84
2022/10/09 10:17:37;;;;;;;5.67;2.45;;;;;;;17.34;54.95;101330.55;2055357;85;21091;-81
2022/10/09 10:20:54;;;;;;;5.20;1.62;;;;;;;17.57;55.28;101325.64;2048224;85;21001;-82
2022/10/09 10:23:59;;;;;;;8.80;2.00;;;;;;;17.73;54.90;101318.77;2050898;85;20990;-81
2022/10/09 10:27:12;;;;;;;6.60;1.98;;;;;;;17.99;54.65;101317.49;2044169;85;21029;-82
2022/10/09 10:30:16;;;;;;;6.35;2.00;;;;;;;18.21;54.57;101309.83;2040751;85;21045;-81
2022/10/09 10:33:28;;;;;;;8.18;2.72;;;;;;;18.50;54.29;101306.73;2031849;86;21057;-81
2022/10/09 10:36:31;;;;;;;6.97;1.90;;;;;;;18.50;53.48;101302.70;2032974;86;21015;-83
2022/10/09 10:39:47;;;;;;;5.65;2.25;;;;;;;18.60;53.54;101306.77;2032167;86;21021;-83
2022/10/09 10:43:00;;;;;;;6.17;1.98;;;;;;;18.71;53.01;101306.77;2030408;86;21082;-80
2022/10/09 10:46:16;;;;;;;4.95;1.95;;;;;;;18.87;52.78;101307.59;2034466;86;21029;-80
2022/10/09 10:49:22;;;;;;;5.75;1.98;;;;;;;18.98;52.70;101309.77;2025101;86;21064;-80
2022/10/09 10:52:56;;;;;;;5.40;1.90;;;;;;;18.97;51.39;101312.94;2028510;86;21044;-78
2022/10/09 10:56:08;;;;;;;12.55;2.25;;;;;;;18.71;50.67;101317.52;2027980;85;21025;-83
2022/10/09 10:59:48;;;;;;;10.25;2.12;;;;;;;18.51;51.24;101319.17;2043139;86;21011;-81
2022/10/09 11:03:15;;;;;;;6.45;1.85;;;;;;;18.63;51.32;101318.16;2032522;86;21069;-78
2022/10/09 11:06:34;;;;;;;6.62;2.05;;;;;;;18.90;50.85;101313.93;2024932;86;21474;-81
2022/10/09 11:09:53;;;;;;;5.65;1.60;;;;;;;18.67;49.91;101312.71;2031882;86;21103;-80
2022/10/09 11:13:13;;;;;;;5.03;1.50;;;;;;;18.54;49.38;101312.90;2030004;86;21701;-80
2022/10/09 11:16:31;;;;;;;;;;;;;;;18.40;50.08;101319.16;2038848;86;21030;-80
2022/10/09 11:20:11;;;;;;;3.92;2.10;;;;;;;18.34;50.24;101315.88;2005134;86;20169;-78
2022/10/09 11:23:48;;;;;;;3.95;1.70;;;;;;;18.37;49.91;101311.47;2022157;86;21074;-78
2022/10/09 11:27:21;;;;;;;5.20;1.87;;;;;;;18.14;50.01;101312.44;2028025;86;21055;-79
2022/10/09 11:30:25;;;;;;;4.12;1.67;;;;;;;18.12;50.40;101309.10;2034635;86;21057;-79
2022/10/09 11:33:43;;;;;;;5.30;1.67;;;;;;;18.36;50.60;101308.47;2038334;86;21077;-82
2022/10/09 11:36:44;;;;;;;5.65;1.92;;;;;;;18.53;50.06;101298.33;2043373;86;21013;-81
2022/10/09 11:39:46;;;;;;;5.47;1.50;;;;;;;18.58;48.98;101294.53;2040107;86;21547;-79
2022/10/09 11:42:56;;;;;;;6.58;1.92;;;;;;;18.57;49.67;101296.39;2039661;86;21564;-79
2022/10/09 11:46:19;;;;;;;6.33;1.57;;;;;;;18.59;49.58;101290.84;2033888;86;21037;-82
2022/10/09 11:49:25;;;;;;;6.28;1.67;;;;;;;18.57;49.59;101293.70;1993246;86;21497;-80
2022/10/09 11:52:36;;;;;;;6.33;1.65;;;;;;;18.63;48.51;101290.77;2041551;86;21025;-82
2022/10/09 11:55:38;;;;;;;7.10;1.85;;;;;;;18.64;49.25;101291.11;2040259;86;21044;-80
2022/10/09 11:58:39;;;;;;;3.87;1.57;;;;;;;18.63;48.84;101285.39;2038050;86;21053;-83
2022/10/09 12:01:43;;;;;;;4.10;1.30;;;;;;;18.61;48.78;101282.05;2034089;86;21002;-82
2022/10/09 12:04:46;;;;;;;4.22;1.20;;;;;;;18.72;48.59;101278.86;2043793;86;21048;-83
2022/10/09 12:07:47;;;;;;;6.30;1.42;;;;;;;18.86;48.13;101277.67;2044900;86;21060;-82
2022/10/09 12:10:53;;;;;;;4.25;1.50;;;;;;;18.78;47.98;101273.25;2044733;86;21576;-81
2022/10/09 12:13:57;;;;;;;4.65;1.65;;;;;;;18.64;47.63;101264.22;2037113;86;21041;-79
2022/10/09 12:16:59;;;;;;;3.33;1.35;;;;;;;18.55;47.75;101257.29;2041334;86;20993;-80
2022/10/09 12:20:17;;;;;;;4.22;1.77;;;;;;;18.36;47.62;101257.42;2040960;86;21048;-80
2022/10/09 12:23:23;;;;;;;9.65;2.65;;;;;;;18.52;47.42;101253.13;2042327;86;21519;-81
2022/10/09 12:26:25;;;;;;;5.03;1.72;;;;;;;18.48;47.69;101253.20;2044113;86;20990;-81
2022/10/09 12:29:40;;;;;;;7.03;2.62;;;;;;;18.45;48.12;101251.41;2044852;86;21075;-82
2022/10/09 12:32:45;;;;;;;6.33;1.75;;;;;;;18.44;48.00;101255.94;2033899;86;21089;-81
2022/10/09 12:36:04;;;;;;;5.72;1.57;;;;;;;18.24;47.43;101242.29;2031935;86;21006;-80
2022/10/09 12:39:21;;;;;;;4.40;1.50;;;;;;;18.06;47.36;101248.60;2040143;86;21014;-81
2022/10/09 12:42:23;;;;;;;3.50;1.65;;;;;;;18.04;47.39;101250.64;2032300;86;21494;-84
2022/10/09 12:45:29;;;;;;;4.10;1.40;;;;;;;17.99;47.71;101251.70;2027046;86;21073;-81
2022/10/09 12:48:35;;;;;;;4.55;1.32;;;;;;;18.02;47.43;101253.53;2003388;87;21054;-79
2022/10/09 12:51:36;;;;;;;6.87;1.65;;;;;;;18.01;47.42;101238.93;2007860;87;21053;-78
2022/10/09 12:54:42;;;;;;;3.47;1.25;;;;;;;17.92;46.90;101236.34;2007502;87;21053;-81
2022/10/09 12:57:43;;;;;;;6.78;1.45;;;;;;;17.78;47.03;101232.32;2005412;87;21025;-80
2022/10/09 13:00:49;;;;;;;5.28;1.32;;;;;;;17.87;47.47;101232.05;1998953;88;21042;-81
2022/10/09 13:04:04;;;;;;;8.38;1.50;;;;;;;17.67;46.66;101228.25;2033292;86;21035;-80
2022/10/09 13:07:18;;;;;;;3.37;1.50;;;;;;;17.44;47.21;101235.06;2014969;86;21024;-76
2022/10/09 13:10:23;;;;;;;2.02;1.27;;;;;;;17.47;46.92;101232.02;2021856;86;21547;-80
2022/10/09 13:13:26;;;;;;;6.62;1.50;;;;;;;17.00;46.67;101238.52;2031470;86;21570;-83
2022/10/09 13:16:41;;;;;;;4.85;1.12;;;;;;;16.67;46.88;101232.08;2026704;85;21558;-82
2022/10/09 13:19:52;;;;;;;5.85;1.50;;;;;;;16.48;47.61;101239.25;2036396;86;21559;-81
2022/10/09 13:22:57;;;;;;;5.87;1.47;;;;;;;16.31;47.73;101230.49;2027485;86;21026;-81
2022/10/09 13:26:01;;;;;;;5.40;1.47;;;;;;;16.33;47.30;101229.30;2031599;86;20994;-80
2022/10/09 13:29:05;;;;;;;4.25;1.32;;;;;;;16.45;48.01;101218.19;2035685;86;21519;-82
2022/10/09 13:32:09;;;;;;;4.03;1.20;;;;;;;16.56;47.60;101213.75;2037439;85;21066;-83
2022/10/09 13:35:10;;;;;;;4.30;1.00;;;;;;;16.48;47.66;101209.78;2053068;85;21049;-79
2022/10/09 13:38:16;;;;;;;4.00;1.32;;;;;;;16.39;47.69;101213.52;2045844;85;21602;-78
2022/10/09 13:41:22;;;;;;;3.22;0.90;;;;;;;16.19;46.84;101214.48;2047500;85;21009;-80
2022/10/09 13:44:23;;;;;;;4.12;1.15;;;;;;;16.04;47.60;101219.25;2051155;85;21017;-79
2022/10/09 13:47:24;;;;;;;2.37;1.30;;;;;;;15.87;47.26;101210.48;2049811;85;21008;-78
2022/10/09 13:50:25;;;;;;;5.70;1.20;;;;;;;15.80;47.82;101219.40;2051417;85;21559;-78
2022/10/09 13:53:26;;;;;;;2.55;1.20;;;;;;;15.77;48.22;101225.07;2057209;85;21013;-80
2022/10/09 13:56:28;;;;;;;4.37;1.37;;;;;;;15.76;48.08;101218.89;2009498;87;21072;-75
2022/10/09 13:59:30;;;;;;;3.35;1.10;;;;;;;15.69;48.20;101218.77;1977516;88;21068;-78
2022/10/09 14:02:32;;;;;;;4.17;1.32;;;;;;;15.59;48.17;101218.09;1976339;88;21018;-76
2022/10/09 14:05:34;;;;;;;2.40;1.30;;;;;;;15.61;48.56;101211.24;1973713;88;21918;-80
2022/10/09 14:08:35;;;;;;;4.00;1.30;;;;;;;15.68;48.77;101214.43;1997204;88;21074;-79
2022/10/09 14:11:36;;;;;;;5.28;1.67;;;;;;;15.70;48.88;101210.23;1997453;88;21163;-77
2022/10/09 14:14:37;;;;;;;4.03;1.50;;;;;;;15.69;48.90;101207.23;1996220;88;21075;-79
2022/10/09 14:17:38;;;;;;;5.35;1.30;;;;;;;15.78;48.82;101208.86;2000466;88;21040;-78
2022/10/09 14:20:39;;;;;;;3.45;1.47;;;;;;;15.93;48.69;101203.59;2000884;88;21030;-79
2022/10/09 14:23:40;;;;;;;3.08;1.20;;;;;;;15.98;48.75;101201.73;1998365;88;21061;-79
2022/10/09 14:26:42;;;;;;;4.58;1.57;;;;;;;15.88;49.03;101197.92;1992791;88;21589;-78
2022/10/09 14:29:43;;;;;;;4.15;1.47;;;;;;;15.85;48.86;101189.77;1994508;88;21048;-78
2022/10/09 14:32:44;;;;;;;6.28;2.20;;;;;;;15.94;48.99;101190.55;1999026;87;21002;-80